sensor_id;sensor_type;location;lat;lon;timestamp;P1;durP1;ratioP1;P2;durP2;ratioP2
45232;SDS011;30969;51.052;17.056;2022-12-29T00:02:08;7.07;;;3.00;;
45232;SDS011;30969;51.052;17.056;2022-12-29T00:07:13;5.47;;;2.63;;
45232;SDS011;30969;51.052;17.056;2022-12-29T00:12:18;6.20;;;3.40;;
45232;SDS011;30969;51.052;17.056;2022-12-29T00:17:22;6.45;;;3.00;;
45232;SDS011;30969;51.052;17.056;2022-12-29T00:22:26;5.55;;;3.08;;
45232;SDS011;30969;51.052;17.056;2022-12-29T00:27:48;3.85;;;2.42;;
45232;SDS011;30969;51.052;17.056;2022-12-29T00:33:09;4.65;;;2.95;;
45232;SDS011;30969;51.052;17.056;2022-12-29T00:38:32;7.10;;;2.70;;
45232;SDS011;30969;51.052;17.056;2022-12-29T00:43:58;5.55;;;2.72;;
45232;SDS011;30969;51.052;17.056;2022-12-29T00:49:08;5.82;;;3.25;;
45232;SDS011;30969;51.052;17.056;2022-12-29T00:54:34;6.28;;;2.70;;
45232;SDS011;30969;51.052;17.056;2022-12-29T00:59:38;8.27;;;3.15;;
45232;SDS011;30969;51.052;17.056;2022-12-29T01:04:43;4.10;;;2.50;;
45232;SDS011;30969;51.052;17.056;2022-12-29T01:09:48;4.93;;;2.85;;
45232;SDS011;30969;51.052;17.056;2022-12-29T01:15:09;8.52;;;3.55;;
45232;SDS011;30969;51.052;17.056;2022-12-29T01:20:13;4.35;;;2.13;;
45232;SDS011;30969;51.052;17.056;2022-12-29T01:25:18;5.43;;;2.67;;
45232;SDS011;30969;51.052;17.056;2022-12-29T01:30:22;5.25;;;2.17;;
45232;SDS011;30969;51.052;17.056;2022-12-29T01:35:25;3.78;;;2.15;;
45232;SDS011;30969;51.052;17.056;2022-12-29T01:40:30;4.78;;;2.33;;
45232;SDS011;30969;51.052;17.056;2022-12-29T01:45:34;5.68;;;2.40;;
45232;SDS011;30969;51.052;17.056;2022-12-29T01:50:38;2.92;;;1.90;;
45232;SDS011;30969;51.052;17.056;2022-12-29T01:55:48;3.20;;;1.90;;
45232;SDS011;30969;51.052;17.056;2022-12-29T02:00:54;5.93;;;2.45;;
45232;SDS011;30969;51.052;17.056;2022-12-29T02:05:59;4.20;;;2.35;;
45232;SDS011;30969;51.052;17.056;2022-12-29T02:11:09;4.90;;;2.47;;
45232;SDS011;30969;51.052;17.056;2022-12-29T02:27:09;4.70;;;2.08;;
45232;SDS011;30969;51.052;17.056;2022-12-29T02:32:36;4.38;;;2.10;;
45232;SDS011;30969;51.052;17.056;2022-12-29T02:37:50;3.42;;;2.10;;
45232;SDS011;30969;51.052;17.056;2022-12-29T02:43:03;3.10;;;2.33;;
45232;SDS011;30969;51.052;17.056;2022-12-29T02:48:15;6.65;;;2.40;;
45232;SDS011;30969;51.052;17.056;2022-12-29T02:53:23;6.03;;;2.83;;
45232;SDS011;30969;51.052;17.056;2022-12-29T02:58:41;4.70;;;2.50;;
45232;SDS011;30969;51.052;17.056;2022-12-29T03:03:49;3.88;;;2.45;;
45232;SDS011;30969;51.052;17.056;2022-12-29T03:09:10;3.00;;;2.10;;
45232;SDS011;30969;51.052;17.056;2022-12-29T03:14:25;4.60;;;2.40;;
45232;SDS011;30969;51.052;17.056;2022-12-29T03:19:50;3.75;;;2.03;;
45232;SDS011;30969;51.052;17.056;2022-12-29T03:24:58;5.57;;;2.50;;
45232;SDS011;30969;51.052;17.056;2022-12-29T03:30:05;3.83;;;2.17;;
45232;SDS011;30969;51.052;17.056;2022-12-29T03:35:13;5.22;;;2.53;;
45232;SDS011;30969;51.052;17.056;2022-12-29T03:40:19;4.72;;;2.50;;
45232;SDS011;30969;51.052;17.056;2022-12-29T03:45:25;3.72;;;2.17;;
45232;SDS011;30969;51.052;17.056;2022-12-29T03:50:30;5.10;;;2.92;;
45232;SDS011;30969;51.052;17.056;2022-12-29T03:55:33;5.25;;;2.70;;
45232;SDS011;30969;51.052;17.056;2022-12-29T04:00:37;4.03;;;2.45;;
45232;SDS011;30969;51.052;17.056;2022-12-29T04:05:42;4.20;;;2.15;;
45232;SDS011;30969;51.052;17.056;2022-12-29T04:10:45;4.43;;;1.73;;
45232;SDS011;30969;51.052;17.056;2022-12-29T04:15:50;2.95;;;1.80;;
45232;SDS011;30969;51.052;17.056;2022-12-29T04:20:55;4.47;;;2.13;;
45232;SDS011;30969;51.052;17.056;2022-12-29T04:26:06;5.68;;;2.42;;
45232;SDS011;30969;51.052;17.056;2022-12-29T04:31:10;3.40;;;1.80;;
45232;SDS011;30969;51.052;17.056;2022-12-29T04:36:15;2.40;;;1.67;;
45232;SDS011;30969;51.052;17.056;2022-12-29T04:41:19;4.50;;;2.70;;
45232;SDS011;30969;51.052;17.056;2022-12-29T04:46:22;3.42;;;2.05;;
45232;SDS011;30969;51.052;17.056;2022-12-29T04:51:27;3.45;;;1.98;;
45232;SDS011;30969;51.052;17.056;2022-12-29T04:56:31;3.58;;;1.90;;
45232;SDS011;30969;51.052;17.056;2022-12-29T05:01:35;4.53;;;1.88;;
45232;SDS011;30969;51.052;17.056;2022-12-29T05:06:39;6.57;;;3.50;;
45232;SDS011;30969;51.052;17.056;2022-12-29T05:11:43;6.07;;;2.70;;
45232;SDS011;30969;51.052;17.056;2022-12-29T05:16:46;5.35;;;2.42;;
45232;SDS011;30969;51.052;17.056;2022-12-29T05:21:51;5.28;;;2.20;;
45232;SDS011;30969;51.052;17.056;2022-12-29T05:26:56;5.53;;;2.88;;
45232;SDS011;30969;51.052;17.056;2022-12-29T05:31:59;3.70;;;2.08;;
45232;SDS011;30969;51.052;17.056;2022-12-29T05:37:04;6.95;;;2.53;;
45232;SDS011;30969;51.052;17.056;2022-12-29T05:42:08;8.77;;;2.67;;
45232;SDS011;30969;51.052;17.056;2022-12-29T05:47:11;4.60;;;2.58;;
45232;SDS011;30969;51.052;17.056;2022-12-29T05:52:16;4.45;;;2.83;;
45232;SDS011;30969;51.052;17.056;2022-12-29T05:57:20;5.15;;;2.78;;
45232;SDS011;30969;51.052;17.056;2022-12-29T06:02:23;5.22;;;2.75;;
45232;SDS011;30969;51.052;17.056;2022-12-29T06:07:28;5.07;;;3.28;;
45232;SDS011;30969;51.052;17.056;2022-12-29T06:12:31;5.20;;;2.53;;
45232;SDS011;30969;51.052;17.056;2022-12-29T06:17:35;4.70;;;2.72;;
45232;SDS011;30969;51.052;17.056;2022-12-29T06:22:40;4.63;;;3.50;;
45232;SDS011;30969;51.052;17.056;2022-12-29T06:27:43;9.88;;;3.65;;
45232;SDS011;30969;51.052;17.056;2022-12-29T06:32:47;6.40;;;2.90;;
45232;SDS011;30969;51.052;17.056;2022-12-29T06:37:52;8.20;;;3.38;;
45232;SDS011;30969;51.052;17.056;2022-12-29T06:42:55;6.00;;;3.13;;
45232;SDS011;30969;51.052;17.056;2022-12-29T06:47:59;6.10;;;3.28;;
45232;SDS011;30969;51.052;17.056;2022-12-29T06:53:04;4.72;;;3.13;;
45232;SDS011;30969;51.052;17.056;2022-12-29T06:58:08;8.70;;;3.95;;
45232;SDS011;30969;51.052;17.056;2022-12-29T07:03:11;6.93;;;4.22;;
45232;SDS011;30969;51.052;17.056;2022-12-29T07:08:16;6.57;;;3.83;;
45232;SDS011;30969;51.052;17.056;2022-12-29T07:13:20;6.28;;;3.72;;
45232;SDS011;30969;51.052;17.056;2022-12-29T07:18:23;5.35;;;3.67;;
45232;SDS011;30969;51.052;17.056;2022-12-29T07:23:28;5.05;;;3.53;;
45232;SDS011;30969;51.052;17.056;2022-12-29T07:28:32;6.15;;;3.28;;
45232;SDS011;30969;51.052;17.056;2022-12-29T07:33:36;7.97;;;3.83;;
45232;SDS011;30969;51.052;17.056;2022-12-29T07:38:41;6.55;;;4.25;;
45232;SDS011;30969;51.052;17.056;2022-12-29T07:43:46;6.72;;;3.90;;
45232;SDS011;30969;51.052;17.056;2022-12-29T07:48:50;7.50;;;4.65;;
45232;SDS011;30969;51.052;17.056;2022-12-29T07:53:55;8.30;;;5.38;;
45232;SDS011;30969;51.052;17.056;2022-12-29T07:58:58;6.65;;;3.78;;
45232;SDS011;30969;51.052;17.056;2022-12-29T08:04:02;8.02;;;3.92;;
45232;SDS011;30969;51.052;17.056;2022-12-29T08:09:07;8.93;;;4.10;;
45232;SDS011;30969;51.052;17.056;2022-12-29T08:14:18;7.10;;;4.00;;
45232;SDS011;30969;51.052;17.056;2022-12-29T08:19:22;7.80;;;3.90;;
45232;SDS011;30969;51.052;17.056;2022-12-29T08:24:29;7.03;;;4.32;;
45232;SDS011;30969;51.052;17.056;2022-12-29T08:29:32;8.60;;;4.20;;
45232;SDS011;30969;51.052;17.056;2022-12-29T08:34:36;8.43;;;4.70;;
45232;SDS011;30969;51.052;17.056;2022-12-29T08:39:41;6.78;;;4.05;;
45232;SDS011;30969;51.052;17.056;2022-12-29T08:44:44;6.90;;;3.78;;
45232;SDS011;30969;51.052;17.056;2022-12-29T08:49:48;5.95;;;4.13;;
45232;SDS011;30969;51.052;17.056;2022-12-29T08:54:53;6.93;;;3.85;;
45232;SDS011;30969;51.052;17.056;2022-12-29T08:59:56;8.90;;;5.30;;
45232;SDS011;30969;51.052;17.056;2022-12-29T09:05:00;7.43;;;3.72;;
45232;SDS011;30969;51.052;17.056;2022-12-29T09:10:05;7.03;;;3.75;;
45232;SDS011;30969;51.052;17.056;2022-12-29T09:15:09;6.90;;;4.15;;
45232;SDS011;30969;51.052;17.056;2022-12-29T09:20:14;7.15;;;4.05;;
45232;SDS011;30969;51.052;17.056;2022-12-29T09:25:21;6.85;;;3.80;;
45232;SDS011;30969;51.052;17.056;2022-12-29T09:30:26;7.65;;;4.13;;
45232;SDS011;30969;51.052;17.056;2022-12-29T09:35:29;10.32;;;4.55;;
45232;SDS011;30969;51.052;17.056;2022-12-29T09:40:34;7.57;;;4.50;;
45232;SDS011;30969;51.052;17.056;2022-12-29T09:45:40;5.57;;;3.70;;
45232;SDS011;30969;51.052;17.056;2022-12-29T09:50:48;6.53;;;3.67;;
45232;SDS011;30969;51.052;17.056;2022-12-29T09:55:57;8.27;;;4.68;;
45232;SDS011;30969;51.052;17.056;2022-12-29T10:01:04;8.77;;;4.20;;
45232;SDS011;30969;51.052;17.056;2022-12-29T10:06:10;7.15;;;3.78;;
45232;SDS011;30969;51.052;17.056;2022-12-29T10:11:22;7.93;;;3.90;;
45232;SDS011;30969;51.052;17.056;2022-12-29T10:16:36;7.95;;;3.88;;
45232;SDS011;30969;51.052;17.056;2022-12-29T10:21:49;6.50;;;3.60;;
45232;SDS011;30969;51.052;17.056;2022-12-29T10:27:03;9.07;;;4.07;;
45232;SDS011;30969;51.052;17.056;2022-12-29T10:32:16;5.45;;;3.50;;
45232;SDS011;30969;51.052;17.056;2022-12-29T10:37:29;6.22;;;3.08;;
45232;SDS011;30969;51.052;17.056;2022-12-29T10:42:39;6.50;;;3.45;;
45232;SDS011;30969;51.052;17.056;2022-12-29T10:47:49;6.55;;;3.28;;
45232;SDS011;30969;51.052;17.056;2022-12-29T10:52:58;7.80;;;3.88;;
45232;SDS011;30969;51.052;17.056;2022-12-29T10:58:07;8.70;;;3.53;;
45232;SDS011;30969;51.052;17.056;2022-12-29T11:03:30;6.85;;;2.80;;
45232;SDS011;30969;51.052;17.056;2022-12-29T11:08:54;6.93;;;3.65;;
45232;SDS011;30969;51.052;17.056;2022-12-29T11:14:07;6.80;;;3.28;;
45232;SDS011;30969;51.052;17.056;2022-12-29T11:19:21;10.10;;;3.13;;
45232;SDS011;30969;51.052;17.056;2022-12-29T11:24:26;7.78;;;2.53;;
45232;SDS011;30969;51.052;17.056;2022-12-29T11:29:37;7.10;;;3.50;;
45232;SDS011;30969;51.052;17.056;2022-12-29T11:34:43;6.00;;;3.20;;
45232;SDS011;30969;51.052;17.056;2022-12-29T11:39:49;7.03;;;3.15;;
45232;SDS011;30969;51.052;17.056;2022-12-29T11:44:56;8.80;;;3.00;;
45232;SDS011;30969;51.052;17.056;2022-12-29T11:50:16;8.27;;;3.38;;
45232;SDS011;30969;51.052;17.056;2022-12-29T11:55:21;7.18;;;3.42;;
45232;SDS011;30969;51.052;17.056;2022-12-29T12:00:30;8.73;;;3.22;;
45232;SDS011;30969;51.052;17.056;2022-12-29T12:05:37;5.82;;;3.33;;
45232;SDS011;30969;51.052;17.056;2022-12-29T12:10:48;9.25;;;3.53;;
45232;SDS011;30969;51.052;17.056;2022-12-29T12:15:59;6.47;;;3.55;;
45232;SDS011;30969;51.052;17.056;2022-12-29T12:21:12;5.20;;;2.88;;
45232;SDS011;30969;51.052;17.056;2022-12-29T12:26:21;7.55;;;3.65;;
45232;SDS011;30969;51.052;17.056;2022-12-29T12:31:38;10.13;;;3.95;;
45232;SDS011;30969;51.052;17.056;2022-12-29T12:36:51;8.80;;;3.90;;
45232;SDS011;30969;51.052;17.056;2022-12-29T12:42:08;9.70;;;4.38;;
45232;SDS011;30969;51.052;17.056;2022-12-29T12:52:57;7.18;;;3.80;;
45232;SDS011;30969;51.052;17.056;2022-12-29T12:58:13;6.43;;;3.60;;
45232;SDS011;30969;51.052;17.056;2022-12-29T13:03:27;7.18;;;4.05;;
45232;SDS011;30969;51.052;17.056;2022-12-29T13:14:22;6.63;;;2.58;;
45232;SDS011;30969;51.052;17.056;2022-12-29T13:19:36;5.40;;;3.08;;
45232;SDS011;30969;51.052;17.056;2022-12-29T13:24:50;3.97;;;2.78;;
45232;SDS011;30969;51.052;17.056;2022-12-29T13:30:02;6.13;;;2.78;;
45232;SDS011;30969;51.052;17.056;2022-12-29T13:35:14;5.88;;;2.97;;
45232;SDS011;30969;51.052;17.056;2022-12-29T13:40:32;5.22;;;3.53;;
45232;SDS011;30969;51.052;17.056;2022-12-29T13:45:40;5.13;;;3.00;;
45232;SDS011;30969;51.052;17.056;2022-12-29T13:50:48;5.65;;;3.55;;
45232;SDS011;30969;51.052;17.056;2022-12-29T13:55:57;8.63;;;4.50;;
45232;SDS011;30969;51.052;17.056;2022-12-29T14:01:07;8.95;;;4.93;;
45232;SDS011;30969;51.052;17.056;2022-12-29T14:06:19;8.50;;;5.13;;
45232;SDS011;30969;51.052;17.056;2022-12-29T14:11:31;10.25;;;5.70;;
45232;SDS011;30969;51.052;17.056;2022-12-29T14:16:36;12.80;;;6.32;;
45232;SDS011;30969;51.052;17.056;2022-12-29T14:21:44;11.48;;;6.38;;
45232;SDS011;30969;51.052;17.056;2022-12-29T14:26:54;10.27;;;6.20;;
45232;SDS011;30969;51.052;17.056;2022-12-29T14:31:57;8.80;;;5.55;;
45232;SDS011;30969;51.052;17.056;2022-12-29T14:37:03;9.95;;;5.65;;
45232;SDS011;30969;51.052;17.056;2022-12-29T14:42:10;9.20;;;6.20;;
45232;SDS011;30969;51.052;17.056;2022-12-29T14:47:18;10.43;;;6.35;;
45232;SDS011;30969;51.052;17.056;2022-12-29T14:52:26;10.77;;;6.15;;
45232;SDS011;30969;51.052;17.056;2022-12-29T14:57:35;9.32;;;6.15;;
45232;SDS011;30969;51.052;17.056;2022-12-29T15:02:44;14.55;;;6.75;;
45232;SDS011;30969;51.052;17.056;2022-12-29T15:07:52;12.20;;;6.72;;
45232;SDS011;30969;51.052;17.056;2022-12-29T15:13:00;9.10;;;6.53;;
45232;SDS011;30969;51.052;17.056;2022-12-29T15:18:21;12.02;;;7.72;;
45232;SDS011;30969;51.052;17.056;2022-12-29T15:23:30;15.55;;;8.40;;
45232;SDS011;30969;51.052;17.056;2022-12-29T15:28:37;13.43;;;7.70;;
45232;SDS011;30969;51.052;17.056;2022-12-29T15:33:42;12.40;;;7.82;;
45232;SDS011;30969;51.052;17.056;2022-12-29T15:38:50;13.07;;;7.80;;
45232;SDS011;30969;51.052;17.056;2022-12-29T15:43:58;14.60;;;8.05;;
45232;SDS011;30969;51.052;17.056;2022-12-29T15:49:07;14.88;;;8.40;;
45232;SDS011;30969;51.052;17.056;2022-12-29T15:54:15;13.23;;;7.63;;
45232;SDS011;30969;51.052;17.056;2022-12-29T15:59:22;16.95;;;8.50;;
45232;SDS011;30969;51.052;17.056;2022-12-29T16:04:29;12.70;;;8.07;;
45232;SDS011;30969;51.052;17.056;2022-12-29T16:09:56;18.23;;;8.05;;
45232;SDS011;30969;51.052;17.056;2022-12-29T16:15:02;14.32;;;8.25;;
45232;SDS011;30969;51.052;17.056;2022-12-29T16:20:14;17.40;;;9.63;;
45232;SDS011;30969;51.052;17.056;2022-12-29T16:25:22;14.53;;;9.23;;
45232;SDS011;30969;51.052;17.056;2022-12-29T16:30:28;17.15;;;9.07;;
45232;SDS011;30969;51.052;17.056;2022-12-29T16:35:38;15.48;;;9.57;;
45232;SDS011;30969;51.052;17.056;2022-12-29T16:40:52;14.00;;;8.83;;
45232;SDS011;30969;51.052;17.056;2022-12-29T16:51:29;13.32;;;8.98;;
45232;SDS011;30969;51.052;17.056;2022-12-29T16:56:35;17.92;;;8.90;;
45232;SDS011;30969;51.052;17.056;2022-12-29T17:01:41;20.42;;;9.52;;
45232;SDS011;30969;51.052;17.056;2022-12-29T17:06:44;19.25;;;10.15;;
45232;SDS011;30969;51.052;17.056;2022-12-29T17:11:50;19.98;;;10.13;;
45232;SDS011;30969;51.052;17.056;2022-12-29T17:17:11;16.17;;;9.77;;
45232;SDS011;30969;51.052;17.056;2022-12-29T17:22:19;16.30;;;8.88;;
45232;SDS011;30969;51.052;17.056;2022-12-29T17:27:28;14.38;;;8.98;;
45232;SDS011;30969;51.052;17.056;2022-12-29T17:32:34;11.50;;;7.47;;
45232;SDS011;30969;51.052;17.056;2022-12-29T17:37:38;15.35;;;8.70;;
45232;SDS011;30969;51.052;17.056;2022-12-29T17:42:43;13.40;;;8.20;;
45232;SDS011;30969;51.052;17.056;2022-12-29T17:47:48;12.95;;;7.88;;
45232;SDS011;30969;51.052;17.056;2022-12-29T17:52:52;11.48;;;8.13;;
45232;SDS011;30969;51.052;17.056;2022-12-29T17:58:07;16.45;;;9.27;;
45232;SDS011;30969;51.052;17.056;2022-12-29T18:03:20;14.77;;;8.88;;
45232;SDS011;30969;51.052;17.056;2022-12-29T18:08:26;14.82;;;8.60;;
45232;SDS011;30969;51.052;17.056;2022-12-29T18:13:31;13.52;;;7.45;;
45232;SDS011;30969;51.052;17.056;2022-12-29T18:18:47;16.90;;;10.43;;
45232;SDS011;30969;51.052;17.056;2022-12-29T18:23:50;17.38;;;9.50;;
45232;SDS011;30969;51.052;17.056;2022-12-29T18:28:55;14.93;;;8.85;;
45232;SDS011;30969;51.052;17.056;2022-12-29T18:34:00;16.23;;;9.63;;
45232;SDS011;30969;51.052;17.056;2022-12-29T18:39:09;20.05;;;10.68;;
45232;SDS011;30969;51.052;17.056;2022-12-29T18:44:14;17.17;;;10.70;;
45232;SDS011;30969;51.052;17.056;2022-12-29T18:49:18;17.77;;;9.82;;
45232;SDS011;30969;51.052;17.056;2022-12-29T18:54:24;18.13;;;9.95;;
45232;SDS011;30969;51.052;17.056;2022-12-29T18:59:32;17.55;;;10.68;;
45232;SDS011;30969;51.052;17.056;2022-12-29T19:04:35;13.63;;;8.50;;
45232;SDS011;30969;51.052;17.056;2022-12-29T19:09:39;15.18;;;9.55;;
45232;SDS011;30969;51.052;17.056;2022-12-29T19:14:44;13.75;;;9.25;;
45232;SDS011;30969;51.052;17.056;2022-12-29T19:19:47;15.57;;;8.77;;
45232;SDS011;30969;51.052;17.056;2022-12-29T19:24:51;17.20;;;10.02;;
45232;SDS011;30969;51.052;17.056;2022-12-29T19:30:02;16.13;;;9.38;;
45232;SDS011;30969;51.052;17.056;2022-12-29T19:35:06;17.45;;;10.40;;
45232;SDS011;30969;51.052;17.056;2022-12-29T19:40:12;15.57;;;9.52;;
45232;SDS011;30969;51.052;17.056;2022-12-29T19:45:18;14.50;;;9.13;;
45232;SDS011;30969;51.052;17.056;2022-12-29T19:50:22;15.65;;;9.52;;
45232;SDS011;30969;51.052;17.056;2022-12-29T19:55:25;16.02;;;9.02;;
45232;SDS011;30969;51.052;17.056;2022-12-29T20:00:30;13.25;;;8.40;;
45232;SDS011;30969;51.052;17.056;2022-12-29T20:05:34;16.10;;;10.10;;
45232;SDS011;30969;51.052;17.056;2022-12-29T20:10:38;17.10;;;9.98;;
45232;SDS011;30969;51.052;17.056;2022-12-29T20:15:43;18.17;;;8.93;;
45232;SDS011;30969;51.052;17.056;2022-12-29T20:20:46;17.17;;;9.40;;
45232;SDS011;30969;51.052;17.056;2022-12-29T20:25:53;14.35;;;8.98;;
45232;SDS011;30969;51.052;17.056;2022-12-29T20:31:01;16.65;;;8.93;;
45232;SDS011;30969;51.052;17.056;2022-12-29T20:36:08;18.02;;;10.07;;
45232;SDS011;30969;51.052;17.056;2022-12-29T20:41:13;14.10;;;8.38;;
45232;SDS011;30969;51.052;17.056;2022-12-29T20:46:18;13.93;;;9.05;;
45232;SDS011;30969;51.052;17.056;2022-12-29T20:51:27;18.17;;;9.55;;
45232;SDS011;30969;51.052;17.056;2022-12-29T21:01:55;14.83;;;9.47;;
45232;SDS011;30969;51.052;17.056;2022-12-29T21:06:59;14.55;;;9.82;;
45232;SDS011;30969;51.052;17.056;2022-12-29T21:12:03;17.27;;;10.88;;
45232;SDS011;30969;51.052;17.056;2022-12-29T21:17:08;20.45;;;12.48;;
45232;SDS011;30969;51.052;17.056;2022-12-29T21:22:12;20.02;;;11.77;;
45232;SDS011;30969;51.052;17.056;2022-12-29T21:27:15;19.48;;;11.55;;
45232;SDS011;30969;51.052;17.056;2022-12-29T21:32:20;18.13;;;10.52;;
45232;SDS011;30969;51.052;17.056;2022-12-29T21:37:24;21.40;;;12.40;;
45232;SDS011;30969;51.052;17.056;2022-12-29T21:42:27;20.23;;;11.52;;
45232;SDS011;30969;51.052;17.056;2022-12-29T21:47:33;18.25;;;11.68;;
45232;SDS011;30969;51.052;17.056;2022-12-29T21:52:50;18.42;;;11.50;;
45232;SDS011;30969;51.052;17.056;2022-12-29T21:57:53;20.20;;;10.73;;
45232;SDS011;30969;51.052;17.056;2022-12-29T22:03:15;18.33;;;10.48;;
45232;SDS011;30969;51.052;17.056;2022-12-29T22:08:36;18.63;;;10.77;;
45232;SDS011;30969;51.052;17.056;2022-12-29T22:13:58;18.13;;;10.50;;
45232;SDS011;30969;51.052;17.056;2022-12-29T22:19:04;16.15;;;9.38;;
45232;SDS011;30969;51.052;17.056;2022-12-29T22:24:08;16.05;;;9.15;;
45232;SDS011;30969;51.052;17.056;2022-12-29T22:29:12;16.70;;;10.40;;
45232;SDS011;30969;51.052;17.056;2022-12-29T22:34:16;18.38;;;10.75;;
45232;SDS011;30969;51.052;17.056;2022-12-29T22:39:21;17.75;;;10.82;;
45232;SDS011;30969;51.052;17.056;2022-12-29T22:44:25;16.48;;;9.57;;
45232;SDS011;30969;51.052;17.056;2022-12-29T22:49:30;16.75;;;9.60;;
45232;SDS011;30969;51.052;17.056;2022-12-29T22:54:34;16.63;;;9.48;;
45232;SDS011;30969;51.052;17.056;2022-12-29T22:59:37;16.45;;;9.60;;
45232;SDS011;30969;51.052;17.056;2022-12-29T23:04:43;15.02;;;9.45;;
45232;SDS011;30969;51.052;17.056;2022-12-29T23:10:05;16.73;;;8.95;;
45232;SDS011;30969;51.052;17.056;2022-12-29T23:15:10;14.93;;;8.77;;
45232;SDS011;30969;51.052;17.056;2022-12-29T23:20:15;14.85;;;9.25;;
45232;SDS011;30969;51.052;17.056;2022-12-29T23:25:19;17.15;;;9.48;;
45232;SDS011;30969;51.052;17.056;2022-12-29T23:30:22;16.27;;;8.60;;
45232;SDS011;30969;51.052;17.056;2022-12-29T23:35:27;14.27;;;8.10;;
45232;SDS011;30969;51.052;17.056;2022-12-29T23:40:31;15.85;;;8.57;;
45232;SDS011;30969;51.052;17.056;2022-12-29T23:45:35;13.10;;;8.25;;
45232;SDS011;30969;51.052;17.056;2022-12-29T23:50:41;15.65;;;8.60;;
45232;SDS011;30969;51.052;17.056;2022-12-29T23:55:50;16.92;;;8.85;;
